Aeroporto :







RITROVATECI SU...

 
LOGIN :

Iscrizione | Disclaimer

   EN    FR    IT 

 









Sommario :    VFR   VFR Marginale   IFR   IFR Intensivo   IFR Molto Intensivo
Visibilità : 
Base nubi : 
>= 8 km
>= 3000ft
5 / 8 km
1000 / 3000 ft
1500m / 5 km
500 / 1000 ft
800 / 1500m
200 / 500 ft
< 800m
< 200 ft
Simboli :   Temporali  Nebbia  Neve Forte  Precipitazioni Forti  Vento > 20 kt






- Altitudine del aeroporto : 285 ft
- Codice IATA : ALB


KALB - Albany International

ULTIMO METAR :
  • 160751Z 29009KT 10SM OVC044 M03/M11 A3022 RMK AO2 SLP236 T10281106

METARs OBSOLETI :
  • 160651Z 30007KT 10SM FEW037 BKN230 M03/M11 A3019 RMK AO2 SLP226 T10331111
  • 160551Z 31011KT 10SM FEW055 BKN230 M03/M11 A3015 RMK AO2 SLP212 60000 T10281111 10006 21028 50014

TAF KALB
Valido dal 16 a 06 ore il 17 a 06 ore UTC


160525Z 1606/1706 29012G20KT P6SM FEW040
FM160800 30007KT P6SM SCT250
FM161500 28004KT P6SM SCT100



MetMap, La meteo Aeronautica in un colpo d'occhio ! - Copyright ORBIFLY Dicembre 2007 - Disclaimer

ORBIFLY MET'MAP TEAM :

Programmazione e sviluppo : Alexandra Zaïnal
Concezione : Baudouin d'Aumeries
Aiuto per la programmazione : Marc-Olivier Méhu
Supporto tecnico e logistico : Manuel Goepfert
Aiuto per la traduzione : Arnaldo La Scala

Contatto : metmap@orbifly.com




FONTI E CREDITI :

   NOAA